Time,TemperatureF,DewpointF,PressureIn,WindDirection,WindDirectionDegrees,WindSpeedMPH,WindSpeedGustMPH,Humidity,HourlyPrecipIn,Conditions,Clouds,dailyrainin,SoftwareType,DateUTC
2013-05-06 00:00:00,54.1,50.6,29.97,NE,44,0.0,0.0,88,0.00,,,0.34,Wunderground v.1.15,2013-05-06 05:00:00,
2013-05-06 00:06:00,54.0,50.5,29.97,NE,44,0.0,0.0,88,0.00,,,0.00,Wunderground v.1.15,2013-05-06 05:06:00,
2013-05-06 00:12:00,54.0,50.5,29.97,NE,44,0.0,0.0,88,0.00,,,0.00,Wunderground v.1.15,2013-05-06 05:12:00,
2013-05-06 00:18:00,53.9,50.4,29.97,NE,44,0.0,0.0,88,0.00,,,0.00,Wunderground v.1.15,2013-05-06 05:18:00,
2013-05-06 00:24:00,53.8,50.3,29.97,NE,44,0.0,0.0,88,0.00,,,0.00,Wunderground v.1.15,2013-05-06 05:24:00,
2013-05-06 00:30:00,53.7,50.2,29.96,NE,44,0.0,0.0,88,0.00,,,0.00,Wunderground v.1.15,2013-05-06 05:30:00,
2013-05-06 00:36:00,53.6,50.1,29.97,NE,44,0.0,0.0,88,0.00,,,0.00,Wunderground v.1.15,2013-05-06 05:36:00,
2013-05-06 00:42:00,53.6,50.1,29.96,NE,44,0.0,0.0,88,0.00,,,0.00,Wunderground v.1.15,2013-05-06 05:42:00,
2013-05-06 00:48:00,53.4,50.2,29.97,NE,43,0.0,0.0,89,0.00,,,0.00,Wunderground v.1.15,2013-05-06 05:48:00,
2013-05-06 00:54:00,53.3,50.1,29.97,NE,40,1.0,1.0,89,0.00,,,0.00,Wunderground v.1.15,2013-05-06 05:54:00,
2013-05-06 01:00:00,53.3,50.1,29.97,NE,38,0.0,0.0,89,0.00,,,0.00,Wunderground v.1.15,2013-05-06 06:00:00,
2013-05-06 01:06:00,53.3,50.1,29.97,NNE,33,0.0,2.0,89,0.00,,,0.00,Wunderground v.1.15,2013-05-06 06:06:00,
2013-05-06 01:12:00,53.3,50.1,29.96,NNE,32,0.0,2.0,89,0.00,,,0.00,Wunderground v.1.15,2013-05-06 06:12:00,
2013-05-06 01:18:00,53.4,50.2,29.96,NNE,30,0.0,2.0,89,0.00,,,0.00,Wunderground v.1.15,2013-05-06 06:18:00,
2013-05-06 01:24:00,53.5,50.3,29.96,NNE,28,0.0,1.0,89,0.00,,,0.00,Wunderground v.1.15,2013-05-06 06:24:00,
2013-05-06 01:30:00,53.6,50.4,29.96,NNE,26,0.0,1.0,89,0.00,,,0.00,Wunderground v.1.15,2013-05-06 06:30:00,
2013-05-06 01:36:00,53.7,50.5,29.96,NNE,25,0.0,1.0,89,0.00,,,0.00,Wunderground v.1.15,2013-05-06 06:36:00,
2013-05-06 01:42:00,53.9,50.7,29.96,NNE,25,0.0,0.0,89,0.00,,,0.00,Wunderground v.1.15,2013-05-06 06:42:00,
2013-05-06 01:48:00,54.0,50.8,29.96,North,5,1.0,4.0,89,0.00,,,0.00,Wunderground v.1.15,2013-05-06 06:48:00,
2013-05-06 01:54:00,54.1,51.2,29.96,North,360,1.0,1.0,90,0.00,,,0.00,Wunderground v.1.15,2013-05-06 06:54:00,
2013-05-06 02:00:00,54.1,51.2,29.96,North,360,0.0,2.0,90,0.00,,,0.00,Wunderground v.1.15,2013-05-06 07:00:00,
2013-05-06 02:06:00,54.3,51.4,29.95,NNW,348,1.0,3.0,90,0.00,,,0.00,Wunderground v.1.15,2013-05-06 07:06:00,
2013-05-06 02:12:00,54.4,51.5,29.95,NNW,342,2.0,3.0,90,0.00,,,0.00,Wunderground v.1.15,2013-05-06 07:12:00,
2013-05-06 02:18:00,54.4,51.5,29.95,NW,325,2.0,3.0,90,0.00,,,0.00,Wunderground v.1.15,2013-05-06 07:18:00,
2013-05-06 02:24:00,54.5,51.6,29.95,NW,323,2.0,3.0,90,0.00,,,0.00,Wunderground v.1.15,2013-05-06 07:24:00,
2013-05-06 02:30:00,54.7,51.8,29.95,NW,317,1.0,1.0,90,0.00,,,0.00,Wunderground v.1.15,2013-05-06 07:30:00,
2013-05-06 02:36:00,54.9,52.0,29.95,NW,319,1.0,3.0,90,0.00,,,0.00,Wunderground v.1.15,2013-05-06 07:36:00,
2013-05-06 02:42:00,55.0,52.1,29.95,NNW,327,3.0,3.0,90,0.00,,,0.00,Wunderground v.1.15,2013-05-06 07:42:00,
2013-05-06 02:48:00,55.1,52.2,29.95,NNW,338,3.0,4.0,90,0.00,,,0.00,Wunderground v.1.15,2013-05-06 07:48:00,
2013-05-06 02:54:00,55.1,52.2,29.95,NNW,334,2.0,4.0,90,0.00,,,0.00,Wunderground v.1.15,2013-05-06 07:54:00,
2013-05-06 03:00:00,55.1,52.2,29.95,NNW,335,1.0,4.0,90,0.00,,,0.00,Wunderground v.1.15,2013-05-06 08:00:00,
2013-05-06 03:06:00,55.1,52.2,29.95,NW,326,2.0,4.0,90,0.00,,,0.00,Wunderground v.1.15,2013-05-06 08:06:00,
2013-05-06 03:12:00,55.1,52.2,29.95,NNW,335,3.0,3.0,90,0.00,,,0.00,Wunderground v.1.15,2013-05-06 08:12:00,
2013-05-06 03:18:00,55.1,52.2,29.95,NW,314,3.0,4.0,90,0.00,,,0.00,Wunderground v.1.15,2013-05-06 08:18:00,
2013-05-06 03:24:00,55.1,52.2,29.95,NW,314,3.0,4.0,90,0.00,,,0.00,Wunderground v.1.15,2013-05-06 08:24:00,
2013-05-06 03:30:00,55.0,52.1,29.95,NNW,330,3.0,3.0,90,0.00,,,0.00,Wunderground v.1.15,2013-05-06 08:30:00,
2013-05-06 03:36:00,55.0,52.1,29.95,NNW,334,3.0,5.0,90,0.00,,,0.00,Wunderground v.1.15,2013-05-06 08:36:00,
2013-05-06 03:42:00,55.0,52.1,29.95,NNW,330,3.0,3.0,90,0.00,,,0.00,Wunderground v.1.15,2013-05-06 08:42:00,
2013-05-06 03:48:00,55.0,52.1,29.95,NNW,334,3.0,3.0,90,0.00,,,0.00,Wunderground v.1.15,2013-05-06 08:48:00,
2013-05-06 03:54:00,54.9,52.0,29.94,NNW,333,2.0,4.0,90,0.00,,,0.00,Wunderground v.1.15,2013-05-06 08:54:00,
2013-05-06 04:00:00,54.9,52.0,29.94,NNW,348,3.0,3.0,90,0.00,,,0.00,Wunderground v.1.15,2013-05-06 09:00:00,
2013-05-06 04:06:00,54.8,51.9,29.95,NNW,347,2.0,3.0,90,0.00,,,0.00,Wunderground v.1.15,2013-05-06 09:06:00,
2013-05-06 04:12:00,54.8,51.9,29.95,NNW,339,3.0,4.0,90,0.00,,,0.00,Wunderground v.1.15,2013-05-06 09:12:00,
2013-05-06 04:18:00,54.7,51.8,29.95,NNW,341,3.0,6.0,90,0.00,,,0.00,Wunderground v.1.15,2013-05-06 09:18:00,
2013-05-06 04:24:00,54.8,51.9,29.95,NNW,340,3.0,3.0,90,0.00,,,0.00,Wunderground v.1.15,2013-05-06 09:24:00,
2013-05-06 04:30:00,54.7,51.8,29.96,NNW,341,2.0,2.0,90,0.00,,,0.00,Wunderground v.1.15,2013-05-06 09:30:00,
2013-05-06 04:36:00,54.6,51.7,29.96,NNW,347,2.0,3.0,90,0.00,,,0.00,Wunderground v.1.15,2013-05-06 09:36:00,
2013-05-06 04:42:00,54.6,51.7,29.96,NNW,347,2.0,2.0,90,0.00,,,0.00,Wunderground v.1.15,2013-05-06 09:42:00,
2013-05-06 04:48:00,54.6,51.7,29.96,North,355,1.0,2.0,90,0.00,,,0.00,Wunderground v.1.15,2013-05-06 09:48:00,
2013-05-06 04:54:00,54.6,51.7,29.96,NNW,344,2.0,5.0,90,0.00,,,0.00,Wunderground v.1.15,2013-05-06 09:54:00,
2013-05-06 05:00:00,54.5,51.6,29.96,North,351,2.0,9.0,90,0.00,,,0.00,Wunderground v.1.15,2013-05-06 10:00:00,
2013-05-06 05:06:00,54.4,51.5,29.96,North,349,2.0,9.0,90,0.00,,,0.00,Wunderground v.1.15,2013-05-06 10:06:00,
2013-05-06 05:12:00,54.4,51.5,29.97,North,349,2.0,9.0,90,0.00,,,0.00,Wunderground v.1.15,2013-05-06 10:12:00,
2013-05-06 05:18:00,54.3,51.4,29.97,North,349,1.0,9.0,90,0.00,,,0.00,Wunderground v.1.15,2013-05-06 10:18:00,
2013-05-06 05:24:00,54.3,51.4,29.97,NNW,346,2.0,9.0,90,0.00,,,0.00,Wunderground v.1.15,2013-05-06 10:24:00,
2013-05-06 05:30:00,54.2,51.3,29.97,NNW,330,2.0,9.0,90,0.00,,,0.00,Wunderground v.1.15,2013-05-06 10:30:00,
2013-05-06 05:36:00,54.1,51.2,29.97,NNW,330,3.0,9.0,90,0.00,,,0.00,Wunderground v.1.15,2013-05-06 10:36:00,
2013-05-06 05:42:00,54.1,51.2,29.97,NNW,331,3.0,9.0,90,0.00,,,0.00,Wunderground v.1.15,2013-05-06 10:42:00,
2013-05-06 05:48:00,54.0,51.4,29.97,NNW,333,2.0,9.0,91,0.00,,,0.00,Wunderground v.1.15,2013-05-06 10:48:00,
2013-05-06 05:54:00,53.9,51.3,29.98,NNW,333,2.0,9.0,91,0.00,,,0.00,Wunderground v.1.15,2013-05-06 10:54:00,
2013-05-06 06:00:00,53.7,51.1,29.98,NNW,333,1.0,5.0,91,0.00,,,0.00,Wunderground v.1.15,2013-05-06 11:00:00,
2013-05-06 06:06:00,53.6,50.7,29.98,NNW,334,2.0,5.0,90,0.00,,,0.00,Wunderground v.1.15,2013-05-06 11:06:00,
2013-05-06 06:12:00,53.5,50.6,29.98,NNW,334,1.0,2.0,90,0.00,,,0.00,Wunderground v.1.15,2013-05-06 11:12:00,
2013-05-06 06:18:00,53.5,50.6,29.98,NNW,334,1.0,5.0,90,0.00,,,0.00,Wunderground v.1.15,2013-05-06 11:18:00,
2013-05-06 06:24:00,53.4,50.8,29.99,NNW,348,2.0,4.0,91,0.00,,,0.00,Wunderground v.1.15,2013-05-06 11:24:00,
2013-05-06 06:30:00,53.3,50.7,29.99,NNW,348,2.0,2.0,91,0.00,,,0.00,Wunderground v.1.15,2013-05-06 11:30:00,
2013-05-06 06:36:00,53.2,50.6,29.99,NNW,348,1.0,4.0,91,0.00,,,0.00,Wunderground v.1.15,2013-05-06 11:36:00,
2013-05-06 06:42:00,53.2,50.6,29.99,North,349,2.0,3.0,91,0.00,,,0.00,Wunderground v.1.15,2013-05-06 11:42:00,
2013-05-06 06:48:00,53.2,50.6,29.99,North,349,2.0,3.0,91,0.00,,,0.00,Wunderground v.1.15,2013-05-06 11:48:00,
2013-05-06 06:54:00,53.2,50.6,29.99,North,349,1.0,2.0,91,0.00,,,0.00,Wunderground v.1.15,2013-05-06 11:54:00,
2013-05-06 07:00:00,53.2,50.6,30.00,North,349,1.0,4.0,91,0.00,,,0.00,Wunderground v.1.15,2013-05-06 12:00:00,
2013-05-06 07:06:00,53.1,50.5,30.00,North,350,2.0,5.0,91,0.00,,,0.00,Wunderground v.1.15,2013-05-06 12:06:00,
2013-05-06 07:12:00,53.1,50.5,30.00,North,350,2.0,4.0,91,0.00,,,0.00,Wunderground v.1.15,2013-05-06 12:12:00,
2013-05-06 07:18:00,53.2,50.6,30.00,North,355,2.0,4.0,91,0.00,,,0.00,Wunderground v.1.15,2013-05-06 12:18:00,
2013-05-06 07:24:00,53.3,50.7,30.00,North,355,3.0,5.0,91,0.00,,,0.00,Wunderground v.1.15,2013-05-06 12:24:00,
2013-05-06 07:30:00,53.4,50.8,30.00,North,355,2.0,4.0,91,0.00,,,0.00,Wunderground v.1.15,2013-05-06 12:30:00,
2013-05-06 07:36:00,53.4,50.8,30.01,NNW,341,3.0,6.0,91,0.00,,,0.00,Wunderground v.1.15,2013-05-06 12:36:00,
2013-05-06 07:42:00,53.5,50.9,30.01,North,11,3.0,5.0,91,0.00,,,0.00,Wunderground v.1.15,2013-05-06 12:42:00,
2013-05-06 07:48:00,53.6,51.0,30.01,North,11,2.0,5.0,91,0.00,,,0.00,Wunderground v.1.15,2013-05-06 12:48:00,
2013-05-06 07:54:00,53.6,51.0,30.01,North,10,2.0,4.0,91,0.00,,,0.00,Wunderground v.1.15,2013-05-06 12:54:00,
2013-05-06 08:00:00,53.7,51.1,30.01,North,10,1.0,1.0,91,0.00,,,0.00,Wunderground v.1.15,2013-05-06 13:00:00,
2013-05-06 08:06:00,53.8,51.2,30.01,North,9,1.0,2.0,91,0.00,,,0.00,Wunderground v.1.15,2013-05-06 13:06:00,
2013-05-06 08:12:00,54.0,51.4,30.02,North,9,0.0,1.0,91,0.00,,,0.00,Wunderground v.1.15,2013-05-06 13:12:00,
2013-05-06 08:18:00,54.2,51.6,30.02,North,9,0.0,2.0,91,0.00,,,0.00,Wunderground v.1.15,2013-05-06 13:18:00,
2013-05-06 08:24:00,54.4,51.8,30.02,North,5,1.0,2.0,91,0.00,,,0.00,Wunderground v.1.15,2013-05-06 13:24:00,
2013-05-06 08:30:00,54.7,52.1,30.02,North,5,1.0,2.0,91,0.00,,,0.00,Wunderground v.1.15,2013-05-06 13:30:00,
2013-05-06 08:36:00,55.1,52.5,30.02,North,5,1.0,2.0,91,0.00,,,0.00,Wunderground v.1.15,2013-05-06 13:36:00,
2013-05-06 08:42:00,55.3,52.7,30.01,North,360,1.0,2.0,91,0.00,,,0.00,Wunderground v.1.15,2013-05-06 13:42:00,
2013-05-06 08:48:00,55.4,52.8,30.01,North,355,2.0,3.0,91,0.00,,,0.00,Wunderground v.1.15,2013-05-06 13:48:00,
2013-05-06 08:54:00,55.5,52.9,30.01,North,355,2.0,2.0,91,0.00,,,0.00,Wunderground v.1.15,2013-05-06 13:54:00,
2013-05-06 09:00:00,56.0,53.7,30.01,North,350,1.0,1.0,92,0.00,,,0.00,Wunderground v.1.15,2013-05-06 14:00:00,
2013-05-06 09:06:00,56.3,54.0,30.02,NW,319,2.0,5.0,92,0.00,,,0.00,Wunderground v.1.15,2013-05-06 14:06:00,
2013-05-06 09:12:00,56.5,53.9,30.01,NW,317,2.0,5.0,91,0.00,,,0.00,Wunderground v.1.15,2013-05-06 14:12:00,
2013-05-06 09:18:00,56.7,54.1,30.01,NW,321,1.0,5.0,91,0.00,,,0.00,Wunderground v.1.15,2013-05-06 14:18:00,
2013-05-06 09:24:00,57.1,54.5,30.01,NNW,343,2.0,5.0,91,0.00,,,0.00,Wunderground v.1.15,2013-05-06 14:24:00,
2013-05-06 09:30:00,57.4,54.8,30.01,North,350,2.0,5.0,91,0.00,,,0.00,Wunderground v.1.15,2013-05-06 14:30:00,
2013-05-06 09:36:00,57.7,55.1,30.01,North,349,2.0,5.0,91,0.00,,,0.00,Wunderground v.1.15,2013-05-06 14:36:00,
2013-05-06 09:42:00,58.1,55.5,30.01,North,5,3.0,5.0,91,0.00,,,0.00,Wunderground v.1.15,2013-05-06 14:42:00,
2013-05-06 09:48:00,58.4,55.8,30.01,North,360,3.0,5.0,91,0.00,,,0.00,Wunderground v.1.15,2013-05-06 14:48:00,
2013-05-06 09:54:00,59.0,56.4,30.01,NNW,337,2.0,5.0,91,0.00,,,0.00,Wunderground v.1.15,2013-05-06 14:54:00,
2013-05-06 10:00:00,59.5,56.9,30.01,North,10,3.0,5.0,91,0.00,,,0.00,Wunderground v.1.15,2013-05-06 15:00:00,
2013-05-06 10:06:00,60.0,57.4,30.01,North,355,3.0,5.0,91,0.00,,,0.00,Wunderground v.1.15,2013-05-06 15:06:00,
2013-05-06 10:12:00,60.5,57.9,30.01,North,360,3.0,4.0,91,0.00,,,0.00,Wunderground v.1.15,2013-05-06 15:12:00,
2013-05-06 10:18:00,60.7,57.7,30.01,NNW,346,3.0,4.0,90,0.00,,,0.00,Wunderground v.1.15,2013-05-06 15:18:00,
2013-05-06 10:24:00,60.9,57.9,30.01,North,350,3.0,7.0,90,0.00,,,0.00,Wunderground v.1.15,2013-05-06 15:24:00,
2013-05-06 10:30:00,61.3,58.3,30.01,NNW,348,3.0,3.0,90,0.00,,,0.00,Wunderground v.1.15,2013-05-06 15:30:00,
2013-05-06 10:36:00,61.7,58.7,30.01,NNE,24,3.0,4.0,90,0.00,,,0.00,Wunderground v.1.15,2013-05-06 15:36:00,
2013-05-06 10:42:00,62.0,59.0,30.00,NNW,346,3.0,10.0,90,0.00,,,0.00,Wunderground v.1.15,2013-05-06 15:42:00,
2013-05-06 10:48:00,62.2,58.9,30.00,NW,317,4.0,10.0,89,0.00,,,0.00,Wunderground v.1.15,2013-05-06 15:48:00,
2013-05-06 10:54:00,62.4,59.1,30.00,NNE,28,4.0,6.0,89,0.00,,,0.00,Wunderground v.1.15,2013-05-06 15:54:00,
2013-05-06 11:00:00,62.7,59.4,30.00,NNW,335,4.0,9.0,89,0.00,,,0.00,Wunderground v.1.15,2013-05-06 16:00:00,
2013-05-06 11:06:00,62.8,59.5,30.00,NNE,29,5.0,9.0,89,0.00,,,0.00,Wunderground v.1.15,2013-05-06 16:06:00,
2013-05-06 11:12:00,63.1,59.8,30.00,NNW,333,6.0,9.0,89,0.00,,,0.00,Wunderground v.1.15,2013-05-06 16:12:00,
2013-05-06 11:18:00,63.4,59.8,30.00,NNW,338,5.0,10.0,88,0.00,,,0.00,Wunderground v.1.15,2013-05-06 16:18:00,
2013-05-06 11:24:00,63.8,60.2,30.00,NW,325,4.0,9.0,88,0.00,,,0.00,Wunderground v.1.15,2013-05-06 16:24:00,
2013-05-06 11:30:00,64.1,60.5,30.00,NNW,336,5.0,5.0,88,0.00,,,0.00,Wunderground v.1.15,2013-05-06 16:30:00,
2013-05-06 11:36:00,64.4,60.8,30.00,NNW,346,4.0,9.0,88,0.00,,,0.00,Wunderground v.1.15,2013-05-06 16:36:00,
2013-05-06 11:42:00,64.7,60.7,30.00,NNE,15,4.0,5.0,87,0.00,,,0.00,Wunderground v.1.15,2013-05-06 16:42:00,
2013-05-06 11:48:00,65.1,61.1,30.00,NW,321,3.0,9.0,87,0.00,,,0.00,Wunderground v.1.15,2013-05-06 16:48:00,
2013-05-06 11:54:00,65.5,61.5,30.00,NNW,346,3.0,6.0,87,0.00,,,0.00,Wunderground v.1.15,2013-05-06 16:54:00,
2013-05-06 12:00:00,65.7,61.7,30.00,NNW,339,4.0,4.0,87,0.00,,,0.00,Wunderground v.1.15,2013-05-06 17:00:00,
2013-05-06 12:06:00,65.9,61.6,29.99,NE,34,4.0,7.0,86,0.00,,,0.00,Wunderground v.1.15,2013-05-06 17:06:00,
2013-05-06 12:12:00,66.1,61.8,29.99,NNW,338,5.0,8.0,86,0.00,,,0.00,Wunderground v.1.15,2013-05-06 17:12:00,
2013-05-06 12:18:00,66.3,61.7,29.99,NNE,19,6.0,9.0,85,0.00,,,0.00,Wunderground v.1.15,2013-05-06 17:18:00,
2013-05-06 12:24:00,66.4,61.8,29.99,NW,326,6.0,10.0,85,0.00,,,0.00,Wunderground v.1.15,2013-05-06 17:24:00,
2013-05-06 12:30:00,66.5,61.8,29.99,North,360,6.0,6.0,85,0.00,,,0.00,Wunderground v.1.15,2013-05-06 17:30:00,
2013-05-06 12:36:00,66.8,61.8,29.98,NNW,342,6.0,6.0,84,0.00,,,0.00,Wunderground v.1.15,2013-05-06 17:36:00,
2013-05-06 12:42:00,67.0,62.0,29.98,NNE,23,6.0,10.0,84,0.00,,,0.00,Wunderground v.1.15,2013-05-06 17:42:00,
2013-05-06 12:48:00,67.2,62.2,29.98,North,355,5.0,10.0,84,0.00,,,0.00,Wunderground v.1.15,2013-05-06 17:48:00,
2013-05-06 12:54:00,67.5,62.5,29.98,NNE,13,4.0,9.0,84,0.00,,,0.00,Wunderground v.1.15,2013-05-06 17:54:00,
2013-05-06 13:00:00,67.7,62.3,29.98,NE,42,5.0,5.0,83,0.00,,,0.00,Wunderground v.1.15,2013-05-06 18:00:00,
2013-05-06 13:06:00,67.9,62.5,29.98,NNE,15,5.0,12.0,83,0.00,,,0.00,Wunderground v.1.15,2013-05-06 18:06:00,
2013-05-06 13:12:00,68.1,62.7,29.98,NE,40,5.0,12.0,83,0.00,,,0.00,Wunderground v.1.15,2013-05-06 18:12:00,
2013-05-06 13:18:00,68.2,62.5,29.98,North,360,5.0,12.0,82,0.00,,,0.00,Wunderground v.1.15,2013-05-06 18:18:00,
2013-05-06 13:24:00,68.2,62.5,29.98,NNE,21,5.0,12.0,82,0.00,,,0.00,Wunderground v.1.15,2013-05-06 18:24:00,
2013-05-06 13:30:00,68.4,62.3,29.98,NW,318,6.0,6.0,81,0.00,,,0.00,Wunderground v.1.15,2013-05-06 18:30:00,
2013-05-06 13:36:00,68.6,62.5,29.98,NNE,19,5.0,12.0,81,0.00,,,0.00,Wunderground v.1.15,2013-05-06 18:36:00,
2013-05-06 13:42:00,68.9,62.8,29.98,NNE,21,5.0,7.0,81,0.00,,,0.00,Wunderground v.1.15,2013-05-06 18:42:00,
2013-05-06 13:48:00,69.1,63.0,29.98,NNE,22,5.0,12.0,81,0.00,,,0.00,Wunderground v.1.15,2013-05-06 18:48:00,
2013-05-06 13:54:00,69.4,63.0,29.98,NE,38,5.0,12.0,80,0.00,,,0.00,Wunderground v.1.15,2013-05-06 18:54:00,
2013-05-06 14:00:00,69.2,62.8,29.98,NNE,26,4.0,4.0,80,0.00,,,0.00,Wunderground v.1.15,2013-05-06 19:00:00,
2013-05-06 14:06:00,69.3,62.9,29.98,North,5,4.0,12.0,80,0.00,,,0.00,Wunderground v.1.15,2013-05-06 19:06:00,
2013-05-06 14:12:00,69.5,62.7,29.97,NNW,336,6.0,12.0,79,0.00,,,0.00,Wunderground v.1.15,2013-05-06 19:12:00,
2013-05-06 14:18:00,69.6,62.8,29.97,NNW,345,5.0,12.0,79,0.00,,,0.00,Wunderground v.1.15,2013-05-06 19:18:00,
2013-05-06 14:24:00,69.8,63.0,29.97,North,360,5.0,12.0,79,0.00,,,0.00,Wunderground v.1.15,2013-05-06 19:24:00,
2013-05-06 14:30:00,70.1,63.3,29.97,NNW,346,4.0,4.0,79,0.00,,,0.00,Wunderground v.1.15,2013-05-06 19:30:00,
2013-05-06 14:36:00,70.1,62.9,29.97,NNE,32,5.0,12.0,78,0.00,,,0.00,Wunderground v.1.15,2013-05-06 19:36:00,
2013-05-06 14:42:00,70.0,62.8,29.97,NNW,348,5.0,12.0,78,0.00,,,0.00,Wunderground v.1.15,2013-05-06 19:42:00,
2013-05-06 14:48:00,70.3,62.7,29.97,NNE,22,5.0,12.0,77,0.00,,,0.00,Wunderground v.1.15,2013-05-06 19:48:00,
2013-05-06 14:54:00,70.5,62.9,29.96,NNE,13,5.0,12.0,77,0.00,,,0.00,Wunderground v.1.15,2013-05-06 19:54:00,
2013-05-06 15:00:00,70.7,62.8,29.96,North,355,4.0,4.0,76,0.00,,,0.00,Wunderground v.1.15,2013-05-06 20:00:00,
2013-05-06 15:06:00,70.8,62.9,29.96,NNE,25,5.0,7.0,76,0.00,,,0.00,Wunderground v.1.15,2013-05-06 20:06:00,
2013-05-06 15:12:00,70.9,63.0,29.95,NNE,26,5.0,5.0,76,0.00,,,0.00,Wunderground v.1.15,2013-05-06 20:12:00,
2013-05-06 15:18:00,71.1,62.8,29.96,NNE,30,5.0,9.0,75,0.00,,,0.00,Wunderground v.1.15,2013-05-06 20:18:00,
2013-05-06 15:24:00,71.3,63.0,29.95,North,9,4.0,5.0,75,0.00,,,0.00,Wunderground v.1.15,2013-05-06 20:24:00,
2013-05-06 15:30:00,71.5,63.2,29.95,NE,36,3.0,3.0,75,0.00,,,0.00,Wunderground v.1.15,2013-05-06 20:30:00,
2013-05-06 15:36:00,71.5,62.8,29.95,NNE,32,4.0,11.0,74,0.00,,,0.00,Wunderground v.1.15,2013-05-06 20:36:00,
2013-05-06 15:42:00,70.9,61.8,29.95,NE,34,4.0,9.0,73,0.00,,,0.00,Wunderground v.1.15,2013-05-06 20:42:00,
2013-05-06 15:48:00,70.5,61.4,29.95,NNE,15,4.0,12.0,73,0.00,,,0.00,Wunderground v.1.15,2013-05-06 20:48:00,
2013-05-06 15:54:00,70.7,61.6,29.95,North,5,6.0,9.0,73,0.00,,,0.00,Wunderground v.1.15,2013-05-06 20:54:00,
2013-05-06 16:00:00,71.0,61.9,29.94,NNW,340,5.0,5.0,73,0.00,,,0.00,Wunderground v.1.15,2013-05-06 21:00:00,
2013-05-06 16:06:00,71.0,61.5,29.94,NE,48,5.0,13.0,72,0.00,,,0.00,Wunderground v.1.15,2013-05-06 21:06:00,
2013-05-06 16:12:00,70.6,61.1,29.95,NNE,19,6.0,13.0,72,0.00,,,0.00,Wunderground v.1.15,2013-05-06 21:12:00,
2013-05-06 16:18:00,70.1,60.3,29.94,NNE,30,5.0,13.0,71,0.00,,,0.00,Wunderground v.1.15,2013-05-06 21:18:00,
2013-05-06 16:24:00,69.7,59.9,29.94,NNE,32,5.0,13.0,71,0.00,,,0.00,Wunderground v.1.15,2013-05-06 21:24:00,
2013-05-06 16:30:00,69.4,59.6,29.94,NNE,29,4.0,4.0,71,0.00,,,0.00,Wunderground v.1.15,2013-05-06 21:30:00,
2013-05-06 16:36:00,69.3,59.5,29.94,NNE,17,4.0,13.0,71,0.00,,,0.00,Wunderground v.1.15,2013-05-06 21:36:00,
2013-05-06 16:42:00,69.3,59.5,29.94,NNE,12,3.0,13.0,71,0.00,,,0.00,Wunderground v.1.15,2013-05-06 21:42:00,
2013-05-06 16:48:00,69.2,59.0,29.94,NNE,28,4.0,13.0,70,0.00,,,0.00,Wunderground v.1.15,2013-05-06 21:48:00,
2013-05-06 16:54:00,69.2,59.0,29.94,NNE,15,3.0,13.0,70,0.00,,,0.00,Wunderground v.1.15,2013-05-06 21:54:00,
2013-05-06 17:00:00,69.2,59.0,29.94,NNW,348,3.0,13.0,70,0.00,,,0.00,Wunderground v.1.15,2013-05-06 22:00:00,
2013-05-06 17:06:00,69.1,58.9,29.94,North,5,2.0,13.0,70,0.00,,,0.00,Wunderground v.1.15,2013-05-06 22:06:00,
2013-05-06 17:12:00,69.2,59.0,29.95,NNE,15,2.0,13.0,70,0.00,,,0.00,Wunderground v.1.15,2013-05-06 22:12:00,
2013-05-06 17:18:00,69.3,59.1,29.95,North,349,2.0,13.0,70,0.00,,,0.00,Wunderground v.1.15,2013-05-06 22:18:00,
2013-05-06 17:24:00,69.4,59.2,29.95,North,5,3.0,13.0,70,0.00,,,0.00,Wunderground v.1.15,2013-05-06 22:24:00,
2013-05-06 17:30:00,69.5,58.9,29.95,NNW,330,3.0,13.0,69,0.00,,,0.00,Wunderground v.1.15,2013-05-06 22:30:00,
2013-05-06 17:36:00,69.5,58.9,29.94,NNW,338,4.0,13.0,69,0.00,,,0.00,Wunderground v.1.15,2013-05-06 22:36:00,
2013-05-06 17:42:00,69.6,59.0,29.94,NNW,346,4.0,13.0,69,0.00,,,0.00,Wunderground v.1.15,2013-05-06 22:42:00,
2013-05-06 17:48:00,69.6,59.0,29.95,North,349,3.0,13.0,69,0.00,,,0.00,Wunderground v.1.15,2013-05-06 22:48:00,
2013-05-06 17:54:00,69.5,58.5,29.95,North,9,2.0,13.0,68,0.00,,,0.00,Wunderground v.1.15,2013-05-06 22:54:00,
2013-05-06 18:00:00,69.3,58.3,29.95,NNW,338,3.0,4.0,68,0.00,,,0.00,Wunderground v.1.15,2013-05-06 23:00:00,
2013-05-06 18:06:00,69.2,58.2,29.95,NNW,335,4.0,5.0,68,0.00,,,0.00,Wunderground v.1.15,2013-05-06 23:06:00,
2013-05-06 18:12:00,69.0,58.0,29.95,NNW,344,3.0,3.0,68,0.00,,,0.00,Wunderground v.1.15,2013-05-06 23:12:00,
2013-05-06 18:18:00,68.9,57.9,29.95,NNW,344,2.0,5.0,68,0.00,,,0.00,Wunderground v.1.15,2013-05-06 23:18:00,
2013-05-06 18:24:00,68.8,57.8,29.95,NNW,342,2.0,2.0,68,0.00,,,0.00,Wunderground v.1.15,2013-05-06 23:24:00,
2013-05-06 18:30:00,68.7,57.3,29.94,NNW,343,2.0,2.0,67,0.00,,,0.00,Wunderground v.1.15,2013-05-06 23:30:00,
2013-05-06 18:36:00,68.6,57.2,29.94,NNW,333,1.0,2.0,67,0.00,,,0.00,Wunderground v.1.15,2013-05-06 23:36:00,
2013-05-06 18:42:00,68.5,57.1,29.94,NNW,333,2.0,2.0,67,0.00,,,0.00,Wunderground v.1.15,2013-05-06 23:42:00,
2013-05-06 18:48:00,68.4,57.0,29.94,NNW,333,1.0,3.0,67,0.00,,,0.00,Wunderground v.1.15,2013-05-06 23:48:00,
2013-05-06 18:54:00,68.3,56.9,29.94,NNW,333,1.0,1.0,67,0.00,,,0.00,Wunderground v.1.15,2013-05-06 23:54:00,
2013-05-06 19:00:00,68.2,56.8,29.94,NNW,333,1.0,6.0,67,0.00,,,0.00,Wunderground v.1.15,2013-05-07 00:00:00,
2013-05-06 19:06:00,68.0,56.6,29.94,NNW,333,1.0,6.0,67,0.00,,,0.00,Wunderground v.1.15,2013-05-07 00:06:00,
2013-05-06 19:12:00,67.9,56.5,29.94,NNW,333,1.0,6.0,67,0.00,,,0.00,Wunderground v.1.15,2013-05-07 00:12:00,
2013-05-06 19:18:00,67.7,56.3,29.94,NNW,333,1.0,6.0,67,0.00,,,0.00,Wunderground v.1.15,2013-05-07 00:18:00,
2013-05-06 19:24:00,67.6,56.2,29.94,NNW,333,0.0,6.0,67,0.00,,,0.00,Wunderground v.1.15,2013-05-07 00:24:00,
2013-05-06 19:30:00,67.5,56.2,29.94,NNW,333,0.0,6.0,67,0.00,,,0.00,Wunderground v.1.15,2013-05-07 00:30:00,
2013-05-06 19:36:00,67.3,56.0,29.94,NNW,333,0.0,6.0,67,0.00,,,0.00,Wunderground v.1.15,2013-05-07 00:36:00,
2013-05-06 19:42:00,67.2,56.3,29.95,NNW,333,0.0,6.0,68,0.00,,,0.00,Wunderground v.1.15,2013-05-07 00:42:00,
2013-05-06 19:48:00,67.0,56.1,29.95,NNW,333,0.0,6.0,68,0.00,,,0.00,Wunderground v.1.15,2013-05-07 00:48:00,
2013-05-06 19:54:00,66.9,56.0,29.95,NNW,333,0.0,6.0,68,0.00,,,0.00,Wunderground v.1.15,2013-05-07 00:54:00,
2013-05-06 20:00:00,66.8,55.9,29.95,NNW,333,0.0,6.0,68,0.00,,,0.00,Wunderground v.1.15,2013-05-07 01:00:00,
2013-05-06 20:06:00,66.6,55.7,29.95,NNW,333,0.0,6.0,68,0.00,,,0.00,Wunderground v.1.15,2013-05-07 01:06:00,
2013-05-06 20:12:00,66.5,55.6,29.95,NNW,333,0.0,6.0,68,0.00,,,0.00,Wunderground v.1.15,2013-05-07 01:12:00,
2013-05-06 20:18:00,66.3,55.4,29.95,NNW,333,0.0,6.0,68,0.00,,,0.00,Wunderground v.1.15,2013-05-07 01:18:00,
2013-05-06 20:24:00,66.1,55.2,29.95,NNW,333,0.0,6.0,68,0.00,,,0.00,Wunderground v.1.15,2013-05-07 01:24:00,
2013-05-06 20:30:00,66.0,55.1,29.95,NNW,333,0.0,6.0,68,0.00,,,0.00,Wunderground v.1.15,2013-05-07 01:30:00,
2013-05-06 20:36:00,65.7,54.8,29.95,NNW,333,0.0,6.0,68,0.00,,,0.00,Wunderground v.1.15,2013-05-07 01:36:00,
2013-05-06 20:42:00,65.6,54.8,29.95,NNW,333,0.0,6.0,68,0.00,,,0.00,Wunderground v.1.15,2013-05-07 01:42:00,
2013-05-06 20:48:00,65.3,54.5,29.96,NNW,333,0.0,6.0,68,0.00,,,0.00,Wunderground v.1.15,2013-05-07 01:48:00,
2013-05-06 20:54:00,65.1,54.3,29.96,NNW,333,0.0,6.0,68,0.00,,,0.00,Wunderground v.1.15,2013-05-07 01:54:00,
2013-05-06 21:00:00,64.8,54.0,29.96,NNW,333,0.0,0.0,68,0.00,,,0.00,Wunderground v.1.15,2013-05-07 02:00:00,
2013-05-06 21:06:00,64.6,53.8,29.96,NNW,333,0.0,0.0,68,0.00,,,0.00,Wunderground v.1.15,2013-05-07 02:06:00,
2013-05-06 21:12:00,64.4,53.6,29.96,NNW,333,0.0,0.0,68,0.00,,,0.00,Wunderground v.1.15,2013-05-07 02:12:00,
2013-05-06 21:18:00,64.1,53.3,29.96,NNW,333,0.0,0.0,68,0.00,,,0.00,Wunderground v.1.15,2013-05-07 02:18:00,
2013-05-06 21:24:00,63.8,53.0,29.97,NNW,333,0.0,0.0,68,0.00,,,0.00,Wunderground v.1.15,2013-05-07 02:24:00,
2013-05-06 21:30:00,63.5,52.7,29.97,NNW,333,0.0,0.0,68,0.00,,,0.00,Wunderground v.1.15,2013-05-07 02:30:00,
2013-05-06 21:36:00,63.1,52.4,29.97,NNW,333,0.0,0.0,68,0.00,,,0.00,Wunderground v.1.15,2013-05-07 02:36:00,
2013-05-06 21:42:00,62.8,52.1,29.97,NNW,333,0.0,0.0,68,0.00,,,0.00,Wunderground v.1.15,2013-05-07 02:42:00,
2013-05-06 21:48:00,62.4,51.7,29.97,NNW,333,0.0,0.0,68,0.00,,,0.00,Wunderground v.1.15,2013-05-07 02:48:00,
2013-05-06 21:54:00,61.9,51.2,29.97,NNW,333,0.0,0.0,68,0.00,,,0.00,Wunderground v.1.15,2013-05-07 02:54:00,
2013-05-06 22:00:00,61.4,51.1,29.97,NNW,333,0.0,3.0,69,0.00,,,0.00,Wunderground v.1.15,2013-05-07 03:00:00,
2013-05-06 22:06:00,61.0,50.8,29.97,NNW,333,0.0,3.0,69,0.00,,,0.00,Wunderground v.1.15,2013-05-07 03:06:00,
2013-05-06 22:12:00,60.5,50.3,29.97,NNW,333,0.0,3.0,69,0.00,,,0.00,Wunderground v.1.15,2013-05-07 03:12:00,
2013-05-06 22:18:00,60.2,50.0,29.97,NNW,333,0.0,3.0,69,0.00,,,0.00,Wunderground v.1.15,2013-05-07 03:18:00,
2013-05-06 22:24:00,59.8,49.6,29.97,NNW,333,0.0,3.0,69,0.00,,,0.00,Wunderground v.1.15,2013-05-07 03:24:00,
2013-05-06 22:30:00,59.4,49.2,29.98,NNW,333,0.0,3.0,69,0.00,,,0.00,Wunderground v.1.15,2013-05-07 03:30:00,
2013-05-06 22:36:00,59.0,48.8,29.98,NNW,333,0.0,3.0,69,0.00,,,0.00,Wunderground v.1.15,2013-05-07 03:36:00,
2013-05-06 22:42:00,58.8,49.0,29.98,NNW,333,0.0,3.0,70,0.00,,,0.00,Wunderground v.1.15,2013-05-07 03:42:00,
2013-05-06 22:48:00,58.5,49.1,29.98,NNW,333,0.0,3.0,71,0.00,,,0.00,Wunderground v.1.15,2013-05-07 03:48:00,
2013-05-06 22:54:00,58.2,48.8,29.98,NNW,333,0.0,3.0,71,0.00,,,0.00,Wunderground v.1.15,2013-05-07 03:54:00,
2013-05-06 23:00:00,57.8,48.5,29.98,NNW,333,0.0,3.0,71,0.00,,,0.00,Wunderground v.1.15,2013-05-07 04:00:00,
2013-05-06 23:02:00,57.7,48.4,29.98,NNW,333,0.0,3.0,71,0.00,,,0.00,Wunderground v.1.15,2013-05-07 04:02:00,
2013-05-06 23:04:00,57.6,48.3,29.98,NNW,333,0.0,3.0,71,0.00,,,0.00,Wunderground v.1.15,2013-05-07 04:04:00,
2013-05-06 23:08:00,57.4,48.1,29.98,NNW,333,0.0,3.0,71,0.00,,,0.00,Wunderground v.1.15,2013-05-07 04:08:00,
2013-05-06 23:12:00,57.2,47.9,29.98,NNW,333,0.0,3.0,71,0.00,,,0.00,Wunderground v.1.15,2013-05-07 04:12:00,
2013-05-06 23:18:00,56.9,48.0,29.99,NNW,333,0.0,3.0,72,0.00,,,0.00,Wunderground v.1.15,2013-05-07 04:18:00,
2013-05-06 23:20:00,56.8,47.9,29.99,NNW,333,0.0,3.0,72,0.00,,,0.00,Wunderground v.1.15,2013-05-07 04:20:00,
2013-05-06 23:26:00,56.6,47.7,29.99,NNW,333,0.0,3.0,72,0.00,,,0.00,Wunderground v.1.15,2013-05-07 04:26:00,
2013-05-06 23:32:00,56.4,47.5,29.98,NNW,333,0.0,3.0,72,0.00,,,0.00,Wunderground v.1.15,2013-05-07 04:32:00,
2013-05-06 23:38:00,56.4,47.9,29.99,NNW,333,0.0,3.0,73,0.00,,,0.00,Wunderground v.1.15,2013-05-07 04:38:00,
2013-05-06 23:44:00,56.3,47.8,29.99,NNW,333,0.0,3.0,73,0.00,,,0.00,Wunderground v.1.15,2013-05-07 04:44:00,
2013-05-06 23:50:00,56.2,47.7,29.99,NNW,333,0.0,3.0,73,0.00,,,0.00,Wunderground v.1.15,2013-05-07 04:50:00,
2013-05-06 23:56:00,56.0,47.8,29.99,NNW,333,0.0,3.0,74,0.00,,,0.00,Wunderground v.1.15,2013-05-07 04:56:00,